Terminal Aerodrome Forecast
Issued by NWS

Home | Current Version | Previous Version | Text Only | Print | Product List | Glossary On
Versions: 1 2 3 4 5 6 7 8 9 10 11 12 13 14 15 16 17 18 19 20 21 22 23 24
000
FTUS42 KJAX 170300 AAC
TAFCRG
TAF AMD
KCRG 170357Z 1704/1724 30008KT P6SM SCT010 BKN120
      TEMPO 1705/1708 BKN010
     FM171400 32006KT P6SM VCSH FEW020 SCT250
     FM171900 05006KT P6SM VCTS SCT035CB=

USA.gov is the U.S. government's official web portal to all federal, state and local government web resources and services.